Time;durP1;ratioP1;P1;durP2;ratioP2;P2;SDS_P1;SDS_P2;PMS_P1;PMS_P2;Temp;Humidity;BMP_temperature;BMP_pressure;BME280_temperature;BME280_humidity;BME280_pressure;Samples;Min_cycle;Max_cycle;Signal;HPM_P1;HPM_P2
2023/01/30 00:02:25;;;;;;;59.25;25.48;;;;;;;-144.31;100.00;58022.63;5033961;28;20070;-57
2023/01/30 00:05:49;;;;;;;59.35;23.50;;;;;;;-144.31;100.00;58022.63;5036881;28;20048;-61
2023/01/30 00:09:14;;;;;;;71.55;24.52;;;;;;;-144.31;100.00;58022.63;5038305;28;20466;-58
2023/01/30 00:12:38;;;;;;;59.70;25.35;;;;;;;-144.31;100.00;58022.63;5036134;28;20474;-58
2023/01/30 00:16:02;;;;;;;63.28;23.73;;;;;;;-144.31;100.00;58022.63;5038043;28;20437;-58
2023/01/30 00:19:26;;;;;;;54.25;23.90;;;;;;;-144.31;100.00;58022.63;5036990;28;20045;-58
2023/01/30 00:22:50;;;;;;;67.97;24.45;;;;;;;-144.31;100.00;58022.63;5035526;28;20037;-59
2023/01/30 00:26:14;;;;;;;52.70;22.90;;;;;;;-144.31;100.00;58022.63;5033691;28;20077;-57
2023/01/30 00:29:39;;;;;;;58.50;24.25;;;;;;;-144.31;100.00;58022.63;5039146;28;20045;-55
2023/01/30 00:33:03;;;;;;;51.67;21.90;;;;;;;-144.31;100.00;58022.63;5034796;28;20127;-56
2023/01/30 00:36:27;;;;;;;54.58;23.25;;;;;;;-144.31;100.00;58022.63;5035914;28;20055;-55
2023/01/30 00:39:53;;;;;;;56.63;22.35;;;;;;;-144.31;100.00;58022.63;5035395;28;20390;-58
2023/01/30 00:47:07;;;;;;;50.22;21.02;;;;;;;-144.31;100.00;58022.63;5034976;28;20483;-58
2023/01/30 00:50:41;;;;;;;53.25;23.67;;;;;;;-144.31;100.00;58022.63;5035870;28;20044;-53
2023/01/30 00:54:12;;;;;;;47.92;22.70;;;;;;;-144.31;100.00;58022.63;5035146;28;20070;-57
2023/01/30 00:57:36;;;;;;;50.67;20.67;;;;;;;-144.31;100.00;58022.63;5037441;28;20047;-57
2023/01/30 01:01:00;;;;;;;51.17;21.95;;;;;;;-144.31;100.00;58022.63;5032612;28;20122;-59
2023/01/30 01:04:24;;;;;;;49.22;21.55;;;;;;;-144.31;100.00;58022.63;5040697;28;20037;-55
2023/01/30 01:07:48;;;;;;;48.63;19.75;;;;;;;-144.31;100.00;58022.63;5035183;28;20045;-57
2023/01/30 01:11:23;;;;;;;58.63;20.48;;;;;;;-144.31;100.00;58022.63;5032481;28;20485;-55
2023/01/30 01:14:47;;;;;;;44.55;19.98;;;;;;;-144.31;100.00;58022.63;5035336;28;20149;-56
2023/01/30 01:18:11;;;;;;;51.50;20.52;;;;;;;-144.31;100.00;58022.63;5032239;28;20179;-57
2023/01/30 01:21:35;;;;;;;51.95;20.90;;;;;;;-144.31;100.00;58022.63;5032409;28;20133;-59
2023/01/30 01:24:59;;;;;;;57.38;22.23;;;;;;;-144.31;100.00;58022.63;5035702;28;20673;-56
2023/01/30 01:28:23;;;;;;;59.70;23.25;;;;;;;-144.31;100.00;58022.63;5034311;28;20036;-59
2023/01/30 01:31:47;;;;;;;56.20;22.40;;;;;;;-144.31;100.00;58022.63;5034608;28;20048;-55
2023/01/30 01:35:12;;;;;;;55.97;21.48;;;;;;;-144.31;100.00;58022.63;5035657;28;20139;-57
2023/01/30 01:38:37;;;;;;;57.15;22.95;;;;;;;-144.31;100.00;58022.63;5034170;28;20155;-56
2023/01/30 01:42:02;;;;;;;54.17;23.15;;;;;;;-144.31;100.00;58022.63;5035195;28;20045;-58
2023/01/30 01:45:51;;;;;;;45.70;20.52;;;;;;;-144.31;100.00;58022.63;5035149;28;20547;-55
2023/01/30 01:49:29;;;;;;;50.05;20.30;;;;;;;-144.31;100.00;58022.63;5030148;28;20044;-52
2023/01/30 01:53:01;;;;;;;54.60;22.48;;;;;;;-144.31;100.00;58022.63;5035488;28;20044;-57
2023/01/30 01:56:26;;;;;;;60.42;24.00;;;;;;;-144.31;100.00;58022.63;5032908;28;20053;-58
2023/01/30 02:00:01;;;;;;;61.58;24.60;;;;;;;-144.31;100.00;58022.63;5033674;28;20393;-62
2023/01/30 02:03:27;;;;;;;49.45;22.95;;;;;;;-144.31;100.00;58022.63;5034172;28;20055;-60
2023/01/30 02:06:53;;;;;;;55.40;22.63;;;;;;;-144.31;100.00;58022.63;5036331;28;20037;-56
2023/01/30 02:10:19;;;;;;;51.33;21.20;;;;;;;-144.31;100.00;58022.63;5039074;28;20053;-53
2023/01/30 02:13:45;;;;;;;51.58;22.45;;;;;;;-144.31;100.00;58022.63;5063575;28;20037;-54
2023/01/30 02:17:09;;;;;;;52.42;21.60;;;;;;;-144.31;100.00;58022.63;5034677;28;20079;-58
2023/01/30 02:21:05;;;;;;;44.83;19.02;;;;;;;-144.31;100.00;58022.63;5036295;28;20509;-56
2023/01/30 02:24:53;;;;;;;49.97;21.90;;;;;;;-144.31;100.00;58022.63;5036223;28;20107;-58
2023/01/30 02:28:43;;;;;;;45.63;20.45;;;;;;;-144.31;100.00;58022.63;5033524;28;20559;-59
2023/01/30 02:33:03;;;;;;;51.20;20.88;;;;;;;-144.31;100.00;58022.63;5030847;28;20081;-58
2023/01/30 02:36:53;;;;;;;47.67;19.73;;;;;;;-144.31;100.00;58022.63;4982196;28;20084;-56
2023/01/30 02:40:26;;;;;;;50.67;19.90;;;;;;;-144.31;100.00;58022.63;5034362;28;20135;-58
2023/01/30 02:44:26;;;;;;;54.92;21.25;;;;;;;-144.31;100.00;58022.63;5036312;28;20083;-54
2023/01/30 02:48:01;;;;;;;47.65;20.20;;;;;;;-144.31;100.00;58022.63;5032048;28;20053;-60
2023/01/30 02:51:36;;;;;;;48.50;20.25;;;;;;;-144.31;100.00;58022.63;5040266;28;20052;-59
2023/01/30 02:55:05;;;;;;;53.38;21.02;;;;;;;-144.31;100.00;58022.63;5031917;28;20047;-56
2023/01/30 02:58:31;;;;;;;48.65;21.40;;;;;;;-144.31;100.00;58022.63;5034564;28;20453;-57
2023/01/30 03:02:04;;;;;;;52.63;20.95;;;;;;;-144.31;100.00;58022.63;5034227;28;20049;-57
2023/01/30 03:05:28;;;;;;;50.17;21.63;;;;;;;-144.31;100.00;58022.63;5022118;28;20069;-52
2023/01/30 03:08:56;;;;;;;51.70;22.35;;;;;;;-144.31;100.00;58022.63;5034283;28;20452;-59
2023/01/30 03:12:33;;;;;;;51.72;21.60;;;;;;;-144.31;100.00;58022.63;5038701;28;20040;-58
2023/01/30 03:16:14;;;;;;;44.03;19.52;;;;;;;-144.31;100.00;58022.63;5037454;28;20048;-56
2023/01/30 03:19:39;;;;;;;55.22;22.35;;;;;;;-144.31;100.00;58022.63;5036381;28;20037;-59
2023/01/30 03:23:03;;;;;;;59.58;23.95;;;;;;;-144.31;100.00;58022.63;5035617;28;20551;-58
2023/01/30 03:26:29;;;;;;;58.97;23.45;;;;;;;-144.31;100.00;58022.63;5040438;28;20048;-57
2023/01/30 03:29:53;;;;;;;55.35;23.38;;;;;;;-144.31;100.00;58022.63;5035065;28;20041;-58
2023/01/30 03:33:17;;;;;;;51.88;22.30;;;;;;;-144.31;100.00;58022.63;5034668;28;20056;-54
2023/01/30 03:36:45;;;;;;;49.42;22.00;;;;;;;-144.31;100.00;58022.63;5022754;28;20045;-58
2023/01/30 03:40:11;;;;;;;54.38;22.40;;;;;;;-144.31;100.00;58022.63;5032087;28;20092;-55
2023/01/30 03:43:36;;;;;;;55.10;22.55;;;;;;;-144.31;100.00;58022.63;5041205;28;20839;-56
2023/01/30 03:47:02;;;;;;;;;;;;;;;-144.31;100.00;58022.63;5045137;28;20052;-56
2023/01/30 03:50:27;;;;;;;47.63;20.48;;;;;;;-144.31;100.00;58022.63;5036219;28;19916;-58
2023/01/30 03:53:51;;;;;;;44.90;19.33;;;;;;;-144.31;100.00;58022.63;5038382;28;20045;-58
2023/01/30 03:57:15;;;;;;;47.28;20.20;;;;;;;-144.31;100.00;58022.63;5025962;28;20049;-59
2023/01/30 04:00:40;;;;;;;47.28;19.13;;;;;;;-144.31;100.00;58022.63;5044152;28;20045;-59
2023/01/30 04:04:04;;;;;;;43.30;19.92;;;;;;;-144.31;100.00;58022.63;5041811;28;20037;-54
2023/01/30 04:07:28;;;;;;;46.33;19.98;;;;;;;-144.31;100.00;58022.63;5032398;28;20466;-56
2023/01/30 04:10:52;;;;;;;41.90;18.05;;;;;;;-144.31;100.00;58022.63;5038011;28;20048;-56
2023/01/30 04:14:17;;;;;;;44.67;19.08;;;;;;;-144.31;100.00;58022.63;5037170;28;20040;-57
2023/01/30 04:18:01;;;;;;;37.92;17.50;;;;;;;-144.31;100.00;58022.63;5038193;28;20706;-55
2023/01/30 04:21:43;;;;;;;37.38;19.02;;;;;;;-144.31;100.00;58022.63;5034754;28;20087;-55
2023/01/30 04:25:07;;;;;;;42.15;18.92;;;;;;;-144.31;100.00;58022.63;5039688;28;20052;-57
2023/01/30 04:28:32;;;;;;;49.38;20.77;;;;;;;-144.31;100.00;58022.63;5026735;28;20532;-58
2023/01/30 04:31:56;;;;;;;47.58;19.20;;;;;;;-144.31;100.00;58022.63;5033492;28;20498;-59
2023/01/30 04:35:23;;;;;;;49.50;22.05;;;;;;;-144.31;100.00;58022.63;5034063;28;20132;-55
2023/01/30 04:38:47;;;;;;;44.20;21.13;;;;;;;-144.31;100.00;58022.63;5033421;28;20384;-56
2023/01/30 04:42:13;;;;;;;43.87;20.07;;;;;;;-144.31;100.00;58022.63;5037459;28;20515;-58
2023/01/30 04:45:48;;;;;;;42.65;19.88;;;;;;;-144.31;100.00;58022.63;5034954;28;20286;-55
2023/01/30 04:49:13;;;;;;;43.03;19.42;;;;;;;-144.31;100.00;58022.63;5041567;28;20068;-58
2023/01/30 04:52:37;;;;;;;47.72;21.33;;;;;;;-144.31;100.00;58022.63;5033997;28;20047;-58
2023/01/30 04:56:01;;;;;;;50.47;21.27;;;;;;;-144.31;100.00;58022.63;5021653;28;20041;-59
2023/01/30 04:59:25;;;;;;;45.78;22.30;;;;;;;-144.31;100.00;58022.63;5033677;28;20123;-56
2023/01/30 05:02:52;;;;;;;41.95;19.23;;;;;;;-144.31;100.00;58022.63;5034107;28;20044;-56
2023/01/30 05:06:16;;;;;;;42.92;20.20;;;;;;;-144.31;100.00;58022.63;5035556;28;20425;-57
2023/01/30 05:09:40;;;;;;;41.15;19.05;;;;;;;-144.31;100.00;58022.63;5034781;28;20124;-57
2023/01/30 05:13:04;;;;;;;40.70;19.52;;;;;;;-144.31;100.00;58022.63;5033817;28;20040;-53
2023/01/30 05:16:28;;;;;;;41.63;20.15;;;;;;;-144.31;100.00;58022.63;5036892;28;20407;-53
2023/01/30 05:19:52;;;;;;;39.53;19.13;;;;;;;-144.31;100.00;58022.63;5038914;28;20414;-59
2023/01/30 05:23:16;;;;;;;34.60;17.25;;;;;;;-144.31;100.00;58022.63;5045411;28;20075;-58
2023/01/30 05:26:43;;;;;;;39.38;17.13;;;;;;;-144.31;100.00;58022.63;5043882;28;20041;-55
2023/01/30 05:30:07;;;;;;;36.72;16.67;;;;;;;-144.31;100.00;58022.63;5037739;28;20040;-57
2023/01/30 05:33:30;;;;;;;37.88;15.82;;;;;;;-144.31;100.00;58022.63;5033916;28;20513;-58
2023/01/30 05:36:54;;;;;;;37.17;15.55;;;;;;;-144.31;100.00;58022.63;5035031;28;20340;-57
2023/01/30 05:40:18;;;;;;;40.15;17.90;;;;;;;-144.31;100.00;58022.63;5033093;28;20041;-56
2023/01/30 05:43:42;;;;;;;36.33;16.60;;;;;;;-144.31;100.00;58022.63;5034499;28;20037;-55
2023/01/30 05:47:07;;;;;;;38.42;17.25;;;;;;;-144.31;100.00;58022.63;5034005;28;20442;-56
2023/01/30 05:50:31;;;;;;;35.65;16.67;;;;;;;-144.31;100.00;58022.63;5034411;28;20132;-57
2023/01/30 05:53:55;;;;;;;31.98;15.07;;;;;;;-144.31;100.00;58022.63;5033828;28;20037;-56
2023/01/30 05:57:19;;;;;;;31.45;15.10;;;;;;;-144.31;100.00;58022.63;5032893;28;20379;-54
2023/01/30 06:00:43;;;;;;;37.58;18.48;;;;;;;-144.31;100.00;58022.63;5030583;28;20079;-55
2023/01/30 06:04:07;;;;;;;40.47;18.92;;;;;;;-144.31;100.00;58022.63;5035238;28;20119;-54
2023/01/30 06:07:31;;;;;;;39.35;18.50;;;;;;;-144.31;100.00;58022.63;5038015;28;20036;-53
2023/01/30 06:10:59;;;;;;;30.88;16.70;;;;;;;-144.31;100.00;58022.63;5039957;28;20047;-57
2023/01/30 06:14:23;;;;;;;57.20;41.42;;;;;;;-144.31;100.00;58022.63;5041619;28;20409;-53
2023/01/30 06:17:47;;;;;;;32.95;16.48;;;;;;;-144.31;100.00;58022.63;5041036;28;20069;-58
2023/01/30 06:21:11;;;;;;;33.55;16.65;;;;;;;-144.31;100.00;58022.63;5038043;28;20116;-60
2023/01/30 06:24:36;;;;;;;29.40;14.68;;;;;;;-144.31;100.00;58022.63;5034540;28;20038;-58
2023/01/30 06:27:59;;;;;;;28.58;13.73;;;;;;;-144.31;100.00;58022.63;5033583;28;20466;-55
2023/01/30 06:31:26;;;;;;;28.77;13.65;;;;;;;-144.31;100.00;58022.63;5036080;28;20402;-56
2023/01/30 06:34:49;;;;;;;29.77;13.90;;;;;;;-144.31;100.00;58022.63;5034125;28;20042;-57
2023/01/30 06:38:13;;;;;;;26.38;13.68;;;;;;;-144.31;100.00;58022.63;5033701;28;20133;-58
2023/01/30 06:41:38;;;;;;;24.85;13.10;;;;;;;-144.31;100.00;58022.63;5036379;28;20235;-55
2023/01/30 06:45:02;;;;;;;27.05;12.90;;;;;;;-144.31;100.00;58022.63;5032555;28;20037;-56
2023/01/30 06:48:29;;;;;;;25.58;11.75;;;;;;;-144.31;100.00;58022.63;5046181;28;20033;-59
2023/01/30 06:51:53;;;;;;;26.70;12.77;;;;;;;-144.31;100.00;58022.63;5037027;28;20047;-57
2023/01/30 06:55:19;;;;;;;26.85;11.02;;;;;;;-144.31;100.00;58022.63;5037308;28;20123;-57
2023/01/30 06:58:44;;;;;;;25.70;12.10;;;;;;;-144.31;100.00;58022.63;5043368;28;20525;-59
2023/01/30 07:02:11;;;;;;;23.23;12.88;;;;;;;-144.31;100.00;58022.63;5036371;28;20076;-57
2023/01/30 07:05:36;;;;;;;24.63;11.50;;;;;;;-144.31;100.00;58022.63;5036680;28;20094;-61
2023/01/30 07:09:02;;;;;;;18.38;9.05;;;;;;;-144.31;100.00;58022.63;5035375;28;20040;-59
2023/01/30 07:12:26;;;;;;;;;;;;;;;-144.31;100.00;58022.63;5038015;28;20045;-57
2023/01/30 07:15:51;;;;;;;20.33;10.20;;;;;;;-144.31;100.00;58022.63;5043298;28;19912;-58
2023/01/30 07:19:15;;;;;;;18.83;9.77;;;;;;;-144.31;100.00;58022.63;5042926;28;20197;-58
2023/01/30 07:22:59;;;;;;;23.50;10.35;;;;;;;-144.31;100.00;58022.63;5040254;28;20041;-56
2023/01/30 07:26:24;;;;;;;21.65;10.27;;;;;;;-144.31;100.00;58022.63;5037493;28;20076;-56
2023/01/30 07:29:48;;;;;;;20.27;11.00;;;;;;;-144.31;100.00;58022.63;5043013;28;20044;-55
2023/01/30 07:33:13;;;;;;;22.55;11.65;;;;;;;-144.31;100.00;58022.63;5034492;28;20152;-59
2023/01/30 07:36:37;;;;;;;20.90;10.40;;;;;;;-144.31;100.00;58022.63;5035965;28;20438;-58
2023/01/30 07:40:01;;;;;;;15.95;8.02;;;;;;;-144.31;100.00;58022.63;5031450;28;20049;-57
2023/01/30 07:43:25;;;;;;;24.98;10.88;;;;;;;-144.31;100.00;58022.63;5033613;28;20112;-60
2023/01/30 07:46:49;;;;;;;20.67;9.75;;;;;;;-144.31;100.00;58022.63;5036227;28;20164;-60
2023/01/30 07:50:13;;;;;;;22.48;9.98;;;;;;;-144.31;100.00;58022.63;5038450;28;20037;-59
2023/01/30 07:53:37;;;;;;;23.73;12.30;;;;;;;-144.31;100.00;58022.63;5041070;28;20038;-56
2023/01/30 07:57:04;;;;;;;22.80;12.32;;;;;;;-144.31;100.00;58022.63;5042633;28;20040;-55
2023/01/30 08:00:29;;;;;;;25.88;14.10;;;;;;;-144.31;100.00;58022.63;5045855;28;20060;-59
2023/01/30 08:03:53;;;;;;;32.88;18.83;;;;;;;-144.31;100.00;58022.63;5039819;28;20118;-55
2023/01/30 08:07:17;;;;;;;37.78;19.77;;;;;;;-144.31;100.00;58022.63;5042318;28;20076;-56
2023/01/30 08:10:41;;;;;;;25.75;13.60;;;;;;;-144.31;100.00;58022.63;5042733;28;20178;-55
2023/01/30 08:14:05;;;;;;;23.25;11.55;;;;;;;-144.31;100.00;58022.63;5040113;28;20071;-55
2023/01/30 08:17:29;;;;;;;19.25;10.40;;;;;;;-144.31;100.00;58022.63;5035614;28;20505;-57
2023/01/30 08:20:56;;;;;;;19.52;10.18;;;;;;;-144.31;100.00;58022.63;5043144;28;20132;-57
2023/01/30 08:24:20;;;;;;;25.08;10.05;;;;;;;-144.31;100.00;58022.63;5032024;28;20108;-57
2023/01/30 08:27:45;;;;;;;20.05;10.02;;;;;;;-144.31;100.00;58022.63;5042947;28;20148;-51
2023/01/30 08:31:10;;;;;;;24.23;10.70;;;;;;;-144.31;100.00;58022.63;5035038;28;20406;-58
2023/01/30 08:34:34;;;;;;;22.25;10.88;;;;;;;-144.31;100.00;58022.63;5040838;28;20055;-58
2023/01/30 08:37:59;;;;;;;21.23;10.27;;;;;;;-144.31;100.00;58022.63;5042054;28;20044;-57
2023/01/30 08:41:22;;;;;;;22.52;11.05;;;;;;;-144.31;100.00;58022.63;5037856;28;20041;-58
2023/01/30 08:44:46;;;;;;;22.60;11.30;;;;;;;-144.31;100.00;58022.63;5033542;28;20043;-61
2023/01/30 08:48:11;;;;;;;21.88;11.25;;;;;;;-144.31;100.00;58022.63;5034346;28;20075;-58
2023/01/30 08:51:35;;;;;;;20.83;11.02;;;;;;;-144.31;100.00;58022.63;5032508;28;20041;-58
2023/01/30 08:54:59;;;;;;;19.05;10.43;;;;;;;-144.31;100.00;58022.63;5040668;28;20137;-57
2023/01/30 08:58:23;;;;;;;22.58;11.30;;;;;;;-144.31;100.00;58022.63;5023827;28;20045;-59
2023/01/30 09:01:47;;;;;;;22.77;12.07;;;;;;;-144.31;100.00;58022.63;5033092;28;20288;-56
2023/01/30 09:05:11;;;;;;;22.08;11.48;;;;;;;-144.31;100.00;58022.63;5032619;28;20033;-60
2023/01/30 09:08:35;;;;;;;22.08;10.63;;;;;;;-144.31;100.00;58022.63;5032429;28;20037;-56
2023/01/30 09:12:00;;;;;;;23.75;11.38;;;;;;;-144.31;100.00;58022.63;5032078;28;20475;-57
2023/01/30 09:15:24;;;;;;;18.98;10.95;;;;;;;-144.31;100.00;58022.63;5031965;28;20148;-57
2023/01/30 09:18:49;;;;;;;18.27;9.43;;;;;;;-144.31;100.00;58022.63;5030680;28;20051;-58
2023/01/30 09:22:13;;;;;;;18.30;9.32;;;;;;;-144.31;100.00;58022.63;5035097;28;20124;-59
2023/01/30 09:25:37;;;;;;;14.60;7.68;;;;;;;-144.31;100.00;58022.63;5032413;28;20072;-54
2023/01/30 09:29:01;;;;;;;18.38;9.77;;;;;;;-144.31;100.00;58022.63;5034461;28;20087;-53
2023/01/30 09:32:25;;;;;;;24.67;10.43;;;;;;;-144.31;100.00;58022.63;5031087;28;20045;-54
2023/01/30 09:35:49;;;;;;;22.40;10.30;;;;;;;-144.31;100.00;58022.63;5032899;28;20040;-56
2023/01/30 09:39:13;;;;;;;19.08;8.02;;;;;;;-144.31;100.00;58022.63;5039790;28;20146;-56
2023/01/30 09:42:55;;;;;;;25.30;13.70;;;;;;;-144.31;100.00;58022.63;5033440;28;20079;-56
2023/01/30 09:46:24;;;;;;;18.45;11.18;;;;;;;-144.31;100.00;58022.63;5040785;28;20098;-57
2023/01/30 09:50:00;;;;;;;17.10;8.68;;;;;;;-144.31;100.00;58022.63;5033534;28;20540;-59
2023/01/30 09:53:30;;;;;;;;;;;;;;;-144.31;100.00;58022.63;5035341;28;20410;-58
2023/01/30 09:57:15;;;;;;;16.08;8.20;;;;;;;-144.31;100.00;58022.63;5037258;28;19924;-54
2023/01/30 10:00:47;;;;;;;20.27;9.15;;;;;;;-144.31;100.00;58022.63;5031137;28;20114;-53
2023/01/30 10:04:28;;;;;;;17.10;8.23;;;;;;;-144.31;100.00;58022.63;5031647;28;20442;-59
2023/01/30 10:08:12;;;;;;;15.30;7.75;;;;;;;-144.31;100.00;58022.63;5031262;28;20071;-57
2023/01/30 10:11:55;;;;;;;17.05;8.32;;;;;;;-144.31;100.00;58022.63;5032581;28;20405;-58
2023/01/30 10:15:49;;;;;;;17.65;8.40;;;;;;;-144.31;100.00;58022.63;5033852;28;20123;-62
2023/01/30 10:19:34;;;;;;;16.10;9.40;;;;;;;-144.31;100.00;58022.63;5033609;28;20922;-58
2023/01/30 10:22:58;;;;;;;19.10;9.02;;;;;;;-144.31;100.00;58022.63;5040656;28;20056;-53
2023/01/30 10:26:27;;;;;;;17.73;8.40;;;;;;;-144.31;100.00;58022.63;5036990;28;20045;-59
2023/01/30 10:29:55;;;;;;;20.00;8.40;;;;;;;-144.31;100.00;58022.63;5040028;28;20052;-57
2023/01/30 10:33:25;;;;;;;15.45;7.57;;;;;;;-144.31;100.00;58022.63;5038932;28;20462;-54
2023/01/30 10:37:13;;;;;;;15.48;8.20;;;;;;;-144.31;100.00;58022.63;5039281;28;20102;-54
2023/01/30 10:40:55;;;;;;;15.50;7.10;;;;;;;-144.31;100.00;58022.63;5035193;28;20564;-56
2023/01/30 10:44:22;;;;;;;12.68;7.18;;;;;;;-144.31;100.00;58022.63;5036991;28;20044;-56
2023/01/30 10:47:45;;;;;;;15.15;7.88;;;;;;;-144.31;100.00;58022.63;5039711;28;20040;-58
2023/01/30 10:51:32;;;;;;;15.55;8.13;;;;;;;-144.31;100.00;58022.63;5038811;28;20033;-57
2023/01/30 10:55:11;;;;;;;16.70;8.48;;;;;;;-144.31;100.00;58022.63;5038877;28;20139;-55
2023/01/30 10:58:43;;;;;;;16.00;8.95;;;;;;;-144.31;100.00;58022.63;5038720;28;20506;-58
2023/01/30 11:02:18;;;;;;;17.52;9.75;;;;;;;-144.31;100.00;58022.63;5039562;28;20434;-56
2023/01/30 11:06:05;;;;;;;19.27;10.32;;;;;;;-144.31;100.00;58022.63;5036948;28;20040;-57
2023/01/30 11:09:45;;;;;;;21.48;11.55;;;;;;;-144.31;100.00;58022.63;5035539;28;20041;-56
2023/01/30 11:13:15;;;;;;;23.00;12.70;;;;;;;-144.31;100.00;58022.63;5037469;28;20033;-54
2023/01/30 11:16:49;;;;;;;32.75;12.85;;;;;;;-144.31;100.00;58022.63;5039146;28;20045;-53
2023/01/30 11:20:17;;;;;;;34.97;16.75;;;;;;;-144.31;100.00;58022.63;5038284;28;20047;-51
2023/01/30 11:24:11;;;;;;;30.80;15.05;;;;;;;-144.31;100.00;58022.63;5040080;28;20037;-57
2023/01/30 11:27:36;;;;;;;29.40;14.23;;;;;;;-144.31;100.00;58022.63;5037415;28;20549;-56
2023/01/30 11:31:18;;;;;;;25.23;12.32;;;;;;;-144.31;100.00;58022.63;5039335;28;20439;-57
2023/01/30 11:34:42;;;;;;;26.70;14.50;;;;;;;-144.31;100.00;58022.63;5035268;28;20116;-54
2023/01/30 11:38:30;;;;;;;24.63;12.55;;;;;;;-144.31;100.00;58022.63;5032965;28;20057;-54
2023/01/30 11:42:02;;;;;;;21.35;12.10;;;;;;;-144.31;100.00;58022.63;5040728;28;20037;-55
2023/01/30 11:45:29;;;;;;;25.73;12.25;;;;;;;-144.31;100.00;58022.63;5036494;28;20045;-56
2023/01/30 11:49:03;;;;;;;25.45;10.73;;;;;;;-144.31;100.00;58022.63;5037988;28;20120;-55
2023/01/30 11:52:29;;;;;;;19.50;9.63;;;;;;;-144.31;100.00;58022.63;5036349;28;20059;-55
2023/01/30 11:55:57;;;;;;;24.02;11.52;;;;;;;-144.31;100.00;58022.63;5033290;28;20119;-59
2023/01/30 11:59:22;;;;;;;21.67;10.90;;;;;;;-144.31;100.00;58022.63;5036563;28;20041;-60
2023/01/30 12:02:47;;;;;;;24.92;13.00;;;;;;;-144.31;100.00;58022.63;5032965;28;20044;-56
2023/01/30 12:06:21;;;;;;;26.63;13.65;;;;;;;-144.31;100.00;58022.63;5031907;28;20124;-57
2023/01/30 12:09:53;;;;;;;26.75;14.18;;;;;;;-144.31;100.00;58022.63;5033793;28;20119;-59
2023/01/30 12:13:29;;;;;;;28.38;13.60;;;;;;;-144.31;100.00;58022.63;5036310;28;20061;-54
2023/01/30 12:17:20;;;;;;;26.73;14.52;;;;;;;-144.31;100.00;58022.63;5037861;28;20084;-54
2023/01/30 12:20:58;;;;;;;36.88;18.05;;;;;;;-144.31;100.00;58022.63;5034490;28;20036;-56
2023/01/30 12:24:57;;;;;;;42.55;21.08;;;;;;;-144.31;100.00;58022.63;5042115;28;20093;-59
2023/01/30 12:28:45;;;;;;;41.90;20.40;;;;;;;-144.31;100.00;58022.63;5043602;28;20083;-55
2023/01/30 12:32:16;;;;;;;25.02;11.98;;;;;;;-144.31;100.00;58022.63;5037607;28;20038;-58
2023/01/30 12:36:05;;;;;;;20.88;10.60;;;;;;;-144.31;100.00;58022.63;5033191;28;20045;-56
2023/01/30 12:39:38;;;;;;;11.77;5.93;;;;;;;-144.31;100.00;58022.63;5034787;28;20099;-56
2023/01/30 12:43:23;;;;;;;7.43;3.05;;;;;;;-144.31;100.00;58022.63;5033041;28;20579;-55
2023/01/30 12:46:57;;;;;;;9.27;4.40;;;;;;;-144.31;100.00;58022.63;5034718;28;20040;-57
2023/01/30 12:50:51;;;;;;;3.92;2.45;;;;;;;-144.31;100.00;58022.63;5034748;28;20045;-54
2023/01/30 12:54:54;;;;;;;6.05;2.63;;;;;;;-144.31;100.00;58022.63;5026792;28;20042;-58
2023/01/30 12:58:44;;;;;;;4.38;2.60;;;;;;;-144.31;100.00;58022.63;5028982;28;20057;-57
2023/01/30 13:02:31;;;;;;;4.82;2.63;;;;;;;-144.31;100.00;58022.63;5034426;28;20033;-56
2023/01/30 13:06:16;;;;;;;5.20;2.35;;;;;;;-144.31;100.00;58022.63;5035386;28;20534;-57
2023/01/30 13:10:12;;;;;;;3.97;2.47;;;;;;;-144.31;100.00;58022.63;5031647;28;20198;-58
2023/01/30 13:13:51;;;;;;;4.20;2.38;;;;;;;-144.31;100.00;58022.63;5034689;28;20045;-61
2023/01/30 13:17:27;;;;;;;3.05;2.00;;;;;;;-144.31;100.00;58022.63;5036621;28;20052;-51
2023/01/30 13:21:11;;;;;;;3.25;2.30;;;;;;;-144.31;100.00;58022.63;5042112;28;20032;-56
2023/01/30 13:24:53;;;;;;;4.32;2.70;;;;;;;-144.31;100.00;58022.63;5035867;28;20036;-52
2023/01/30 13:28:22;;;;;;;4.93;2.55;;;;;;;-144.31;100.00;58022.63;5027806;28;20414;-54
2023/01/30 13:31:56;;;;;;;4.07;2.70;;;;;;;-144.31;100.00;58022.63;5030486;28;20045;-55
2023/01/30 13:35:27;;;;;;;4.07;2.55;;;;;;;-144.31;100.00;58022.63;5040460;28;20111;-57
2023/01/30 13:39:03;;;;;;;4.63;2.67;;;;;;;-144.31;100.00;58022.63;5031696;28;20461;-57
2023/01/30 13:42:37;;;;;;;6.30;3.10;;;;;;;-144.31;100.00;58022.63;5033509;28;20041;-59
2023/01/30 13:46:06;;;;;;;7.93;3.30;;;;;;;-144.31;100.00;58022.63;5031089;28;20040;-56
2023/01/30 13:49:48;;;;;;;5.63;2.83;;;;;;;-144.31;100.00;58022.63;5030521;28;20068;-56
2023/01/30 13:53:30;;;;;;;6.82;3.15;;;;;;;-144.31;100.00;58022.63;5034280;28;20069;-60
2023/01/30 13:57:24;;;;;;;5.93;3.28;;;;;;;-144.31;100.00;58022.63;5033192;28;20080;-54
2023/01/30 14:01:04;;;;;;;8.77;3.55;;;;;;;-144.31;100.00;58022.63;5033757;28;20073;-55
2023/01/30 14:04:29;;;;;;;6.13;3.85;;;;;;;-144.31;100.00;58022.63;5032069;28;20034;-55
2023/01/30 14:08:10;;;;;;;6.43;3.38;;;;;;;-144.31;100.00;58022.63;5033867;28;20073;-59
2023/01/30 14:11:40;;;;;;;5.00;3.00;;;;;;;-144.31;100.00;58022.63;5034311;28;20376;-58
2023/01/30 14:15:23;;;;;;;6.70;3.67;;;;;;;-144.31;100.00;58022.63;5024711;28;20041;-58
2023/01/30 14:18:56;;;;;;;6.53;3.75;;;;;;;-144.31;100.00;58022.63;5028173;28;20076;-57
2023/01/30 14:22:22;;;;;;;9.00;4.43;;;;;;;-144.31;100.00;58022.63;5030541;28;20095;-55
2023/01/30 14:26:38;;;;;;;8.70;4.68;;;;;;;-144.31;100.00;58022.63;5036879;28;20045;-56
2023/01/30 14:30:24;;;;;;;7.03;4.55;;;;;;;-144.31;100.00;58022.63;5031550;28;20053;-59
2023/01/30 14:33:50;;;;;;;11.27;5.50;;;;;;;-144.31;100.00;58022.63;5032171;28;20126;-57
2023/01/30 14:37:28;;;;;;;8.77;5.10;;;;;;;-144.31;100.00;58022.63;5039139;28;20049;-58
2023/01/30 14:40:59;;;;;;;8.85;4.95;;;;;;;-144.31;100.00;58022.63;5030718;28;20041;-58
2023/01/30 14:44:42;;;;;;;5.18;3.17;;;;;;;-144.31;100.00;58022.63;5034944;28;20050;-54
2023/01/30 14:48:27;;;;;;;8.93;4.50;;;;;;;-144.31;100.00;58022.63;5013370;28;20041;-58
2023/01/30 14:52:38;;;;;;;9.38;4.78;;;;;;;-144.31;100.00;58022.63;5024775;28;20045;-61
2023/01/30 14:56:03;;;;;;;10.20;5.28;;;;;;;-144.31;100.00;58022.63;5002411;28;20115;-55
2023/01/30 14:59:36;;;;;;;9.15;5.00;;;;;;;-144.31;100.00;58022.63;5033687;28;20046;-56
2023/01/30 15:03:16;;;;;;;10.70;5.97;;;;;;;-144.31;100.00;58022.63;5030122;28;20080;-53
2023/01/30 15:06:42;;;;;;;7.95;4.45;;;;;;;-144.31;100.00;58022.63;5029639;28;20041;-58
2023/01/30 15:10:25;;;;;;;12.20;5.07;;;;;;;-144.31;100.00;58022.63;5042598;28;20477;-51
2023/01/30 15:14:20;;;;;;;8.93;5.00;;;;;;;-144.31;100.00;58022.63;5034521;28;20033;-56
2023/01/30 15:18:16;;;;;;;9.55;5.65;;;;;;;-144.31;100.00;58022.63;5038507;28;20500;-56
2023/01/30 15:21:40;;;;;;;9.07;4.78;;;;;;;-144.31;100.00;58022.63;5038514;28;20468;-53
2023/01/30 15:25:22;;;;;;;13.88;5.97;;;;;;;-144.31;100.00;58022.63;5035004;28;20042;-52
2023/01/30 15:28:46;;;;;;;7.90;4.70;;;;;;;-144.31;100.00;58022.63;5034891;28;20075;-59
2023/01/30 15:32:24;;;;;;;9.63;5.07;;;;;;;-144.31;100.00;58022.63;5036847;28;20077;-50
2023/01/30 15:35:56;;;;;;;12.73;5.95;;;;;;;-144.31;100.00;58022.63;5031689;28;20770;-53
2023/01/30 15:39:25;;;;;;;8.27;4.30;;;;;;;-144.31;100.00;58022.63;5043912;28;20281;-55
2023/01/30 15:42:59;;;;;;;10.50;5.25;;;;;;;-144.31;100.00;58022.63;5042712;28;20036;-54
2023/01/30 15:46:26;;;;;;;12.38;6.13;;;;;;;-144.31;100.00;58022.63;5036007;28;20044;-50
2023/01/30 15:50:03;;;;;;;12.95;6.80;;;;;;;-144.31;100.00;58022.63;5031099;28;20033;-57